createdAt,value
2022-12-03T00:02:16.179Z,53.50
2022-12-03T00:04:43.020Z,53.40
2022-12-03T00:07:09.727Z,53.60
2022-12-03T00:09:36.450Z,53.40
2022-12-03T00:12:03.307Z,53.40
2022-12-03T00:14:30.098Z,53.40
2022-12-03T00:16:56.782Z,53.40
2022-12-03T00:19:23.494Z,53.50
2022-12-03T00:21:50.315Z,53.50
2022-12-03T00:24:17.878Z,53.30
2022-12-03T00:26:44.594Z,53.70
2022-12-03T00:29:11.485Z,53.50
2022-12-03T00:31:38.290Z,53.60
2022-12-03T00:34:05.078Z,53.50
2022-12-03T00:36:31.771Z,53.40
2022-12-03T00:38:58.522Z,53.40
2022-12-03T00:41:25.771Z,53.50
2022-12-03T00:43:57.408Z,53.50
2022-12-03T00:46:25.268Z,53.20
2022-12-03T00:48:52.276Z,53.20
2022-12-03T00:51:19.559Z,53.30
2022-12-03T00:53:46.249Z,53.20
2022-12-03T00:56:13.138Z,53.30
2022-12-03T00:58:39.968Z,53.40
2022-12-03T01:01:06.711Z,53.30
2022-12-03T01:03:33.490Z,53.50
2022-12-03T01:06:00.211Z,53.30
2022-12-03T01:08:27.038Z,53.30
2022-12-03T01:10:53.770Z,53.40
2022-12-03T01:13:20.451Z,53.30
2022-12-03T01:15:47.481Z,53.20
2022-12-03T01:18:14.194Z,53.30
2022-12-03T01:20:40.997Z,53.50
2022-12-03T01:23:07.839Z,53.30
2022-12-03T01:25:34.584Z,53.50
2022-12-03T01:28:01.274Z,53.50
2022-12-03T01:30:27.996Z,53.50
2022-12-03T01:32:54.721Z,53.50
2022-12-03T01:35:21.416Z,54.50
2022-12-03T01:37:48.129Z,53.80
2022-12-03T01:40:19.175Z,53.80
2022-12-03T01:42:45.917Z,53.70
2022-12-03T01:45:23.713Z,53.70
2022-12-03T01:47:50.790Z,53.80
2022-12-03T01:50:30.132Z,53.80
2022-12-03T01:53:00.303Z,53.50
2022-12-03T01:55:27.249Z,53.70
2022-12-03T01:57:57.226Z,53.60
2022-12-03T02:00:29.532Z,53.80
2022-12-03T02:03:02.088Z,53.90
2022-12-03T02:05:31.406Z,54.00
2022-12-03T02:07:59.228Z,54.10
2022-12-03T02:10:34.313Z,54.20
2022-12-03T02:13:02.566Z,54.40
2022-12-03T02:15:29.359Z,54.60
2022-12-03T02:17:56.702Z,54.80
2022-12-03T02:20:23.531Z,54.60
2022-12-03T02:23:20.958Z,54.60
2022-12-03T02:25:47.650Z,54.40
2022-12-03T02:28:14.439Z,54.20
2022-12-03T02:30:41.403Z,54.50
2022-12-03T02:33:08.216Z,54.50
2022-12-03T02:35:37.163Z,54.60
2022-12-03T02:38:13.462Z,54.60
2022-12-03T02:40:41.126Z,54.60
2022-12-03T02:43:08.126Z,54.80
2022-12-03T02:45:39.237Z,54.70
2022-12-03T02:48:13.166Z,54.80
2022-12-03T02:50:43.736Z,54.70
2022-12-03T02:53:17.608Z,54.80
2022-12-03T02:55:44.986Z,54.90
2022-12-03T02:58:12.058Z,54.90
2022-12-03T03:00:39.636Z,54.80
2022-12-03T03:03:08.928Z,54.80
2022-12-03T03:05:38.475Z,55.10
2022-12-03T03:08:06.379Z,55.00
2022-12-03T03:10:35.437Z,55.10
2022-12-03T03:13:05.759Z,54.90
2022-12-03T03:15:32.497Z,54.90
2022-12-03T03:17:59.210Z,55.10
2022-12-03T03:20:25.930Z,55.10
2022-12-03T03:22:52.690Z,55.10
2022-12-03T03:25:22.339Z,55.10
2022-12-03T03:27:49.154Z,54.90
2022-12-03T03:30:16.269Z,55.20
2022-12-03T03:32:43.370Z,55.30
2022-12-03T03:35:11.793Z,55.20
2022-12-03T03:37:39.002Z,55.20
2022-12-03T03:40:06.513Z,55.30
2022-12-03T03:42:33.519Z,55.40
2022-12-03T03:45:00.633Z,55.40
2022-12-03T03:47:27.461Z,55.50
2022-12-03T03:49:54.408Z,55.60
2022-12-03T03:52:22.226Z,55.60
2022-12-03T03:54:49.286Z,55.60
2022-12-03T03:57:16.088Z,55.80
2022-12-03T03:59:43.342Z,55.70
2022-12-03T04:02:21.690Z,55.90
2022-12-03T04:05:04.369Z,56.20
2022-12-03T04:07:31.161Z,56.20
2022-12-03T04:09:57.967Z,56.30
2022-12-03T04:12:44.088Z,56.10
2022-12-03T04:15:10.887Z,56.00
2022-12-03T04:17:37.607Z,56.10
2022-12-03T04:20:05.291Z,56.10
2022-12-03T04:22:41.327Z,56.00
2022-12-03T04:25:29.366Z,56.00
2022-12-03T04:28:14.758Z,56.20
2022-12-03T04:30:41.533Z,56.20
2022-12-03T04:33:26.860Z,56.10
2022-12-03T04:35:53.705Z,56.90
2022-12-03T04:38:20.496Z,56.20
2022-12-03T04:41:03.944Z,56.20
2022-12-03T04:43:33.480Z,56.00
2022-12-03T04:46:01.377Z,56.20
2022-12-03T04:48:29.754Z,56.40
2022-12-03T04:50:56.479Z,56.00
2022-12-03T04:53:23.255Z,56.00
2022-12-03T04:55:50.018Z,56.00
2022-12-03T04:58:16.706Z,55.90
2022-12-03T05:00:43.457Z,56.00
2022-12-03T05:03:10.145Z,55.70
2022-12-03T05:05:36.916Z,55.60
2022-12-03T05:08:03.767Z,55.80
2022-12-03T05:10:30.523Z,55.70
2022-12-03T05:12:57.279Z,55.50
2022-12-03T05:15:24.151Z,55.50
2022-12-03T05:17:50.934Z,55.50
2022-12-03T05:20:36.165Z,55.60
2022-12-03T05:23:02.923Z,55.70
2022-12-03T05:25:29.695Z,55.80
2022-12-03T05:27:56.458Z,55.70
2022-12-03T05:30:23.233Z,55.60
2022-12-03T05:32:50.059Z,55.80
2022-12-03T05:35:16.929Z,55.80
2022-12-03T05:37:43.693Z,55.70
2022-12-03T05:40:11.098Z,56.00
2022-12-03T05:42:57.111Z,55.90
2022-12-03T05:45:26.765Z,55.90
2022-12-03T05:47:55.108Z,55.80
2022-12-03T05:50:24.322Z,55.70
2022-12-03T05:52:51.501Z,55.70
2022-12-03T05:55:19.654Z,55.60
2022-12-03T05:57:47.068Z,55.70
2022-12-03T06:00:15.845Z,55.60
2022-12-03T06:02:42.898Z,55.40
2022-12-03T06:05:11.323Z,55.60
2022-12-03T06:07:38.508Z,55.30
2022-12-03T06:10:07.493Z,55.30
2022-12-03T06:12:34.282Z,55.10
2022-12-03T06:15:00.974Z,55.20
2022-12-03T06:17:27.826Z,55.40
2022-12-03T06:19:54.625Z,55.20
2022-12-03T06:22:21.344Z,55.30
2022-12-03T06:24:48.094Z,55.20
2022-12-03T06:27:14.990Z,55.20
2022-12-03T06:29:41.817Z,55.20
2022-12-03T06:32:08.950Z,55.30
2022-12-03T06:34:35.676Z,55.10
2022-12-03T06:37:02.462Z,55.00
2022-12-03T06:39:29.307Z,55.20
2022-12-03T06:41:56.037Z,55.10
2022-12-03T06:44:22.807Z,55.10
2022-12-03T06:46:49.584Z,55.20
2022-12-03T06:49:16.331Z,54.80
2022-12-03T06:51:43.052Z,54.90
2022-12-03T06:54:10.225Z,55.20
2022-12-03T06:56:41.855Z,55.00
2022-12-03T06:59:11.567Z,55.10
2022-12-03T07:01:38.360Z,55.10
2022-12-03T07:04:05.318Z,55.00
2022-12-03T07:06:32.079Z,55.20
2022-12-03T07:08:58.871Z,54.80
2022-12-03T07:11:31.646Z,54.50
2022-12-03T07:14:05.097Z,54.60
2022-12-03T07:16:32.587Z,54.90
2022-12-03T07:18:59.336Z,54.90
2022-12-03T07:21:26.110Z,54.90
2022-12-03T07:23:52.874Z,55.00
2022-12-03T07:26:19.612Z,55.10
2022-12-03T07:28:48.131Z,55.20
2022-12-03T07:31:15.125Z,55.20
2022-12-03T07:33:42.340Z,55.80
2022-12-03T07:36:09.882Z,55.10
2022-12-03T07:38:36.690Z,55.20
2022-12-03T07:41:03.729Z,55.30
2022-12-03T07:43:30.570Z,55.20
2022-12-03T07:45:57.371Z,55.20
2022-12-03T07:48:24.085Z,55.30
2022-12-03T07:50:51.080Z,55.30
2022-12-03T07:53:17.804Z,55.30
2022-12-03T07:55:44.619Z,55.30
2022-12-03T07:58:12.486Z,55.30
2022-12-03T08:00:39.341Z,55.40
2022-12-03T08:03:06.229Z,55.60
2022-12-03T08:05:33.043Z,55.50
2022-12-03T08:07:59.883Z,55.60
2022-12-03T08:10:26.921Z,56.00
2022-12-03T08:12:59.494Z,55.80
2022-12-03T08:15:32.207Z,55.80
2022-12-03T08:18:11.659Z,55.90
2022-12-03T08:20:40.535Z,55.80
2022-12-03T08:23:12.811Z,55.80
2022-12-03T08:25:39.658Z,55.80
2022-12-03T08:28:20.014Z,55.80
2022-12-03T08:30:55.970Z,55.70
2022-12-03T08:33:29.900Z,55.70
2022-12-03T08:35:56.815Z,56.10
2022-12-03T08:38:25.069Z,56.10
2022-12-03T08:40:52.751Z,55.80
2022-12-03T08:43:28.040Z,55.40
2022-12-03T08:45:56.586Z,55.60
2022-12-03T08:48:36.823Z,55.50
2022-12-03T08:51:15.368Z,55.30
2022-12-03T08:53:46.462Z,55.30
2022-12-03T08:56:21.259Z,55.30
2022-12-03T08:58:55.115Z,55.20
2022-12-03T09:01:28.681Z,55.20
2022-12-03T09:03:56.913Z,55.10
2022-12-03T09:06:23.879Z,56.20
2022-12-03T09:08:50.614Z,55.20
2022-12-03T09:11:17.309Z,55.40
2022-12-03T09:13:44.257Z,55.30
2022-12-03T09:16:10.976Z,55.20
2022-12-03T09:18:37.709Z,55.20
2022-12-03T09:21:04.683Z,55.20
2022-12-03T09:23:31.412Z,55.10
2022-12-03T09:25:59.162Z,55.10
2022-12-03T09:28:25.974Z,55.10
2022-12-03T09:30:52.694Z,54.90
2022-12-03T09:33:19.485Z,55.00
2022-12-03T09:35:46.193Z,55.10
2022-12-03T09:38:12.998Z,55.10
2022-12-03T09:40:40.704Z,55.20
2022-12-03T09:43:07.568Z,55.10
2022-12-03T09:45:34.535Z,55.20
2022-12-03T09:48:03.869Z,55.20
2022-12-03T09:50:31.404Z,54.90
2022-12-03T09:53:03.234Z,54.90
2022-12-03T09:55:30.651Z,54.80
2022-12-03T09:57:57.960Z,55.00
2022-12-03T10:00:28.282Z,55.00
2022-12-03T10:02:57.688Z,54.60
2022-12-03T10:05:25.219Z,54.80
2022-12-03T10:07:52.832Z,54.60
2022-12-03T10:10:25.077Z,54.60
2022-12-03T10:12:52.657Z,54.50
2022-12-03T10:15:23.029Z,54.50
2022-12-03T10:17:52.333Z,54.50
2022-12-03T10:20:22.368Z,54.60
2022-12-03T10:22:49.438Z,54.70
2022-12-03T10:25:20.813Z,54.80
2022-12-03T10:27:59.930Z,54.60
2022-12-03T10:30:28.431Z,54.80
2022-12-03T10:32:58.319Z,54.80
2022-12-03T10:35:39.741Z,54.70
2022-12-03T10:38:18.385Z,55.00
2022-12-03T10:40:45.792Z,55.20
2022-12-03T10:43:18.845Z,55.00
2022-12-03T10:46:13.265Z,55.30
2022-12-03T10:48:40.202Z,56.10
2022-12-03T10:51:21.347Z,55.20
2022-12-03T10:53:49.413Z,55.10
2022-12-03T10:56:26.317Z,55.00
2022-12-03T10:58:53.667Z,55.00
2022-12-03T11:01:26.105Z,55.10
2022-12-03T11:04:03.422Z,54.80
2022-12-03T11:06:32.871Z,55.00
2022-12-03T11:09:05.250Z,55.00
2022-12-03T11:11:35.228Z,55.00
2022-12-03T11:14:03.836Z,54.70
2022-12-03T11:16:39.793Z,54.90
2022-12-03T11:19:12.248Z,54.80
2022-12-03T11:22:09.817Z,55.10
2022-12-03T11:24:38.828Z,54.90
2022-12-03T11:27:07.067Z,54.90
2022-12-03T11:29:51.906Z,54.60
2022-12-03T11:32:43.586Z,54.70
2022-12-03T11:35:23.511Z,54.80
2022-12-03T11:37:50.429Z,54.80
2022-12-03T11:40:17.123Z,55.00
2022-12-03T11:42:45.797Z,55.00
2022-12-03T11:45:31.426Z,54.90
2022-12-03T11:47:58.097Z,54.60
2022-12-03T11:50:24.792Z,54.30
2022-12-03T11:53:01.014Z,54.60
2022-12-03T11:55:33.121Z,54.50
2022-12-03T11:58:05.995Z,55.30
2022-12-03T12:00:32.841Z,54.40
2022-12-03T12:02:59.617Z,54.40
2022-12-03T12:05:33.881Z,54.30
2022-12-03T12:08:02.224Z,54.20
2022-12-03T12:10:41.149Z,54.30
2022-12-03T12:13:30.945Z,54.30
2022-12-03T12:15:58.890Z,54.50
2022-12-03T12:18:42.525Z,54.50
2022-12-03T12:21:43.560Z,54.40
2022-12-03T12:24:35.911Z,54.40
2022-12-03T12:27:07.364Z,54.40
2022-12-03T12:29:35.311Z,54.40
2022-12-03T12:32:15.512Z,54.20
2022-12-03T12:34:45.103Z,54.10
2022-12-03T12:37:15.950Z,53.90
2022-12-03T12:39:42.785Z,53.70
2022-12-03T12:42:32.747Z,54.50
2022-12-03T12:45:07.877Z,53.60
2022-12-03T12:47:38.024Z,53.20
2022-12-03T12:50:11.755Z,53.20
2022-12-03T12:53:01.260Z,53.50
2022-12-03T12:55:28.302Z,53.50
2022-12-03T12:57:59.928Z,53.20
2022-12-03T13:00:26.900Z,53.60
2022-12-03T13:03:01.362Z,53.70
2022-12-03T13:05:47.202Z,53.30
2022-12-03T13:08:25.950Z,53.30
2022-12-03T13:10:55.405Z,53.30
2022-12-03T13:13:41.692Z,53.60
2022-12-03T13:16:26.191Z,53.70
2022-12-03T13:18:58.329Z,53.50
2022-12-03T13:21:42.858Z,53.60
2022-12-03T13:24:26.884Z,53.80
2022-12-03T13:26:53.652Z,53.90
2022-12-03T13:29:22.839Z,53.80
2022-12-03T13:32:02.237Z,53.80
2022-12-03T13:34:33.435Z,54.10
2022-12-03T13:37:01.719Z,54.00
2022-12-03T13:39:50.973Z,53.80
2022-12-03T13:42:42.079Z,53.60
2022-12-03T13:45:14.904Z,53.30
2022-12-03T13:47:47.382Z,53.20
2022-12-03T13:50:46.137Z,53.50
2022-12-03T13:53:38.243Z,53.50
2022-12-03T13:56:30.622Z,53.20
2022-12-03T13:59:00.119Z,53.40
2022-12-03T14:01:30.390Z,53.40
2022-12-03T14:03:57.324Z,53.60
2022-12-03T14:06:24.258Z,53.40
2022-12-03T14:08:51.466Z,53.50
2022-12-03T14:11:36.683Z,53.80
2022-12-03T14:14:03.603Z,54.00
2022-12-03T14:16:30.430Z,54.10
2022-12-03T14:18:57.233Z,54.20
2022-12-03T14:21:24.232Z,54.30
2022-12-03T14:23:51.083Z,54.10
2022-12-03T14:26:20.138Z,54.30
2022-12-03T14:28:47.068Z,54.60
2022-12-03T14:31:16.328Z,54.70
2022-12-03T14:33:43.509Z,54.50
2022-12-03T14:36:12.947Z,54.50
2022-12-03T14:38:39.843Z,54.60
2022-12-03T14:41:26.653Z,54.60
2022-12-03T14:43:54.726Z,54.40
2022-12-03T14:46:25.376Z,54.50
2022-12-03T14:48:54.291Z,54.50
2022-12-03T14:51:21.594Z,54.40
2022-12-03T14:53:48.442Z,54.50
2022-12-03T14:56:15.328Z,54.40
2022-12-03T14:58:42.163Z,54.20
2022-12-03T15:01:09.186Z,54.20
2022-12-03T15:03:36.173Z,54.20
2022-12-03T15:06:03.197Z,54.20
2022-12-03T15:08:30.319Z,54.30
2022-12-03T15:10:57.079Z,54.20
2022-12-03T15:13:23.907Z,54.10
2022-12-03T15:15:50.706Z,54.20
2022-12-03T15:18:17.659Z,54.40
2022-12-03T15:20:44.644Z,54.50
2022-12-03T15:23:14.534Z,54.30
2022-12-03T15:25:41.832Z,54.30
2022-12-03T15:28:09.891Z,54.60
2022-12-03T15:30:39.675Z,54.50
2022-12-03T15:33:06.691Z,54.50
2022-12-03T15:35:33.643Z,54.20
2022-12-03T15:38:00.506Z,54.30
2022-12-03T15:40:27.645Z,54.30
2022-12-03T15:42:54.794Z,54.20
2022-12-03T15:45:21.780Z,54.20
2022-12-03T15:47:48.599Z,54.20
2022-12-03T15:50:15.435Z,54.10
2022-12-03T15:52:42.712Z,54.10
2022-12-03T15:55:10.839Z,53.80
2022-12-03T15:57:37.863Z,53.70
2022-12-03T16:00:06.691Z,53.80
2022-12-03T16:02:39.507Z,53.70
2022-12-03T16:05:09.130Z,53.40
2022-12-03T16:07:36.185Z,53.80
2022-12-03T16:10:04.891Z,53.80
2022-12-03T16:12:31.967Z,53.90
2022-12-03T16:14:58.797Z,53.90
2022-12-03T16:17:25.749Z,53.90
2022-12-03T16:19:52.933Z,53.90
2022-12-03T16:22:19.951Z,53.90
2022-12-03T16:24:46.724Z,53.90
2022-12-03T16:27:13.605Z,53.90
2022-12-03T16:29:40.385Z,53.90
2022-12-03T16:32:07.296Z,53.80
2022-12-03T16:34:34.778Z,54.00
2022-12-03T16:37:03.493Z,54.30
2022-12-03T16:39:34.766Z,53.80
2022-12-03T16:42:01.621Z,54.60
2022-12-03T16:44:54.250Z,54.50
2022-12-03T16:47:22.345Z,54.70
2022-12-03T16:49:49.926Z,54.30
2022-12-03T16:52:16.964Z,54.50
2022-12-03T16:54:43.805Z,54.70
2022-12-03T16:57:10.556Z,54.70
2022-12-03T16:59:37.530Z,54.60
2022-12-03T17:02:04.426Z,54.70
2022-12-03T17:04:31.359Z,54.80
2022-12-03T17:06:58.073Z,54.50
2022-12-03T17:09:28.182Z,54.40
2022-12-03T17:11:55.023Z,54.40
2022-12-03T17:14:21.848Z,54.60
2022-12-03T17:16:49.365Z,54.40
2022-12-03T17:19:16.378Z,54.60
2022-12-03T17:21:43.129Z,54.50
2022-12-03T17:24:09.905Z,54.40
2022-12-03T17:26:36.617Z,54.60
2022-12-03T17:29:03.497Z,54.40
2022-12-03T17:31:30.369Z,55.20
2022-12-03T17:33:57.787Z,54.40
2022-12-03T17:36:25.078Z,54.30
2022-12-03T17:38:51.934Z,54.30
2022-12-03T17:41:18.665Z,54.30
2022-12-03T17:43:45.463Z,54.30
2022-12-03T17:46:12.207Z,54.20
2022-12-03T17:48:40.536Z,54.30
2022-12-03T17:51:07.296Z,54.40
2022-12-03T17:53:34.021Z,54.40
2022-12-03T17:56:00.804Z,54.40
2022-12-03T17:58:28.561Z,54.40
2022-12-03T18:01:01.850Z,54.30
2022-12-03T18:03:29.515Z,54.40
2022-12-03T18:05:56.577Z,54.10
2022-12-03T18:08:23.598Z,54.40
2022-12-03T18:10:50.560Z,54.30
2022-12-03T18:13:17.375Z,54.30
2022-12-03T18:15:44.200Z,54.40
2022-12-03T18:18:11.026Z,54.60
2022-12-03T18:20:38.215Z,54.50
2022-12-03T18:23:05.516Z,54.30
2022-12-03T18:25:32.380Z,54.40
2022-12-03T18:27:59.125Z,54.40
2022-12-03T18:30:26.015Z,54.40
2022-12-03T18:32:53.673Z,54.40
2022-12-03T18:35:20.752Z,54.20
2022-12-03T18:37:49.937Z,54.10
2022-12-03T18:40:23.578Z,54.20
2022-12-03T18:42:50.565Z,54.20
2022-12-03T18:45:17.447Z,54.20
2022-12-03T18:47:44.682Z,54.20
2022-12-03T18:50:12.794Z,54.20
2022-12-03T18:52:39.613Z,54.20
2022-12-03T18:55:07.376Z,54.10
2022-12-03T18:57:34.177Z,54.20
2022-12-03T19:00:00.891Z,54.10
2022-12-03T19:05:14.367Z,54.30
2022-12-03T19:07:43.218Z,54.10
2022-12-03T19:10:11.425Z,54.10
2022-12-03T19:12:39.002Z,54.00
2022-12-03T19:15:06.487Z,54.10
2022-12-03T19:17:33.193Z,54.20
2022-12-03T19:19:59.930Z,54.10
2022-12-03T19:22:26.685Z,54.10
2022-12-03T19:24:53.525Z,54.00
2022-12-03T19:27:20.279Z,53.60
2022-12-03T19:29:50.196Z,53.60
2022-12-03T19:32:17.285Z,53.50
2022-12-03T19:34:44.055Z,53.40
2022-12-03T19:37:10.762Z,54.50
2022-12-03T19:39:37.602Z,53.60
2022-12-03T19:42:04.423Z,53.90
2022-12-03T19:44:31.410Z,53.70
2022-12-03T19:46:58.185Z,54.00
2022-12-03T19:49:25.056Z,54.00
2022-12-03T19:51:51.832Z,53.80
2022-12-03T19:54:18.828Z,53.50
2022-12-03T19:56:46.215Z,53.60
2022-12-03T19:59:13.836Z,53.60
2022-12-03T20:01:42.883Z,53.60
2022-12-03T20:04:12.028Z,53.30
2022-12-03T20:06:39.391Z,53.30
2022-12-03T20:09:10.665Z,53.40
2022-12-03T20:11:39.784Z,53.30
2022-12-03T20:14:08.822Z,53.40
2022-12-03T20:16:36.279Z,53.20
2022-12-03T20:19:05.720Z,53.20
2022-12-03T20:21:35.009Z,53.30
2022-12-03T20:24:02.614Z,53.40
2022-12-03T20:26:29.739Z,53.60
2022-12-03T20:28:57.750Z,53.60
2022-12-03T20:31:27.935Z,53.20
2022-12-03T20:33:57.219Z,53.00
2022-12-03T20:36:25.437Z,53.20
2022-12-03T20:39:00.790Z,53.30
2022-12-03T20:41:28.250Z,53.20
2022-12-03T20:43:55.342Z,53.20
2022-12-03T20:46:29.199Z,53.10
2022-12-03T20:48:57.436Z,53.00
2022-12-03T20:51:27.469Z,53.20
2022-12-03T20:53:54.871Z,53.20
2022-12-03T20:56:25.045Z,53.30
2022-12-03T20:58:53.227Z,53.20
2022-12-03T21:01:25.222Z,53.20
2022-12-03T21:03:53.873Z,53.10
2022-12-03T21:06:21.747Z,53.20
2022-12-03T21:08:49.147Z,54.10
2022-12-03T21:11:21.464Z,53.40
2022-12-03T21:13:48.314Z,53.30
2022-12-03T21:16:34.138Z,53.20
2022-12-03T21:19:07.093Z,53.40
2022-12-03T21:21:35.384Z,53.30
2022-12-03T21:24:02.282Z,53.10
2022-12-03T21:26:29.171Z,53.30
2022-12-03T21:28:56.011Z,53.30
2022-12-03T21:31:25.807Z,53.40
2022-12-03T21:33:53.835Z,53.10
2022-12-03T21:36:21.028Z,52.80
2022-12-03T21:38:48.263Z,53.10
2022-12-03T21:41:15.553Z,53.30
2022-12-03T21:43:43.001Z,53.20
2022-12-03T21:47:08.125Z,53.20
2022-12-03T21:49:00.200Z,53.40
2022-12-03T21:51:26.911Z,53.10
2022-12-03T21:53:53.721Z,53.20
2022-12-03T21:56:20.530Z,53.30
2022-12-03T21:58:47.511Z,53.40
2022-12-03T22:01:19.751Z,53.40
2022-12-03T22:03:46.887Z,53.40
2022-12-03T22:06:14.670Z,53.20
2022-12-03T22:08:42.055Z,53.20
2022-12-03T22:11:15.319Z,53.00
2022-12-03T22:13:42.571Z,53.20
2022-12-03T22:16:12.679Z,53.30
2022-12-03T22:18:39.766Z,53.20
2022-12-03T22:21:10.216Z,53.30
2022-12-03T22:23:36.953Z,53.30
2022-12-03T22:26:07.314Z,53.60
2022-12-03T22:28:34.714Z,53.60
2022-12-03T22:31:08.670Z,53.70
2022-12-03T22:33:36.766Z,53.60
2022-12-03T22:36:14.651Z,53.70
2022-12-03T22:38:45.228Z,53.60
2022-12-03T22:41:13.794Z,53.70
2022-12-03T22:43:40.627Z,53.50
2022-12-03T22:46:10.442Z,53.20
2022-12-03T22:48:37.326Z,53.10
2022-12-03T22:51:05.078Z,53.20
2022-12-03T22:53:31.854Z,53.10
2022-12-03T22:55:59.975Z,53.20
2022-12-03T22:58:28.387Z,53.10
2022-12-03T23:01:01.288Z,53.20
2022-12-03T23:03:30.092Z,53.10
2022-12-03T23:05:56.900Z,53.00
2022-12-03T23:08:23.788Z,53.10
2022-12-03T23:10:52.591Z,53.20
2022-12-03T23:13:20.015Z,53.10
2022-12-03T23:15:49.532Z,52.90
2022-12-03T23:18:17.542Z,52.80
2022-12-03T23:20:46.689Z,53.00
2022-12-03T23:23:13.487Z,52.90
2022-12-03T23:25:40.653Z,52.90
2022-12-03T23:28:08.140Z,52.90
2022-12-03T23:30:39.184Z,53.00
2022-12-03T23:33:06.884Z,53.00
2022-12-03T23:35:34.008Z,53.00
2022-12-03T23:38:00.808Z,53.10
2022-12-03T23:40:27.644Z,53.20
2022-12-03T23:42:54.443Z,53.00
2022-12-03T23:45:21.183Z,53.00
2022-12-03T23:47:47.910Z,52.90
2022-12-03T23:50:14.650Z,53.00
2022-12-03T23:52:41.426Z,53.20
2022-12-03T23:55:08.556Z,53.10
2022-12-03T23:57:35.302Z,53.10
